SAS1213 EKCH-EKYT
Flight info
| Callsign | SAS1213 |
|---|---|
| Flight time | 0h 26m |
| Altitude | 18000 |
| Route | GOLGA T506 LAPMA L621 AAL |
| Aircraft | A320/M-SDE3FGHIJ1RWXYZ/ALB1 |
Departure
| Time | 2026-05-07 20:58 |
|---|---|
| Airport | Copenhagen Kastrup Airport (EKCH) |
Arrival
| Time | 2026-05-07 21:25 |
|---|---|
| Airport | Aalborg Airport (EKYT) |
| Time | Latitude | Longitude | Altitude | Speed | Heading |
|---|---|---|---|---|---|
| 2026-05-07 20:21 | 55.62872 | 12.63999 | 17 ft | 0 kts | 12° |
| 2026-05-07 20:44 | 55.62855 | 12.63993 | 19 ft | 1 kts | 12° |
| 2026-05-07 20:44 | 55.62834 | 12.63980 | 19 ft | 4 kts | 49° |
| 2026-05-07 20:44 | 55.62827 | 12.63942 | 17 ft | 4 kts | 102° |
| 2026-05-07 20:45 | 55.62833 | 12.63897 | 17 ft | 4 kts | 104° |
| 2026-05-07 20:45 | 55.62835 | 12.63882 | 21 ft | 0 kts | 104° |
| 2026-05-07 20:51 | 55.62834 | 12.63892 | 21 ft | 2 kts | 104° |
| 2026-05-07 20:51 | 55.62820 | 12.63941 | 17 ft | 7 kts | 133° |
| 2026-05-07 20:51 | 55.62759 | 12.63942 | 19 ft | 11 kts | 203° |
| 2026-05-07 20:51 | 55.62685 | 12.63862 | 19 ft | 14 kts | 199° |
| 2026-05-07 20:52 | 55.62606 | 12.63977 | 17 ft | 18 kts | 123° |
| 2026-05-07 20:52 | 55.62528 | 12.64196 | 17 ft | 24 kts | 121° |
| 2026-05-07 20:52 | 55.62427 | 12.64438 | 17 ft | 23 kts | 141° |
| 2026-05-07 20:52 | 55.62330 | 12.64414 | 17 ft | 16 kts | 191° |
| 2026-05-07 20:53 | 55.62197 | 12.64407 | 15 ft | 23 kts | 169° |
| 2026-05-07 20:53 | 55.62029 | 12.64469 | 17 ft | 27 kts | 168° |
| 2026-05-07 20:53 | 55.61829 | 12.64538 | 18 ft | 32 kts | 169° |
| 2026-05-07 20:53 | 55.61632 | 12.64519 | 19 ft | 24 kts | 213° |
| 2026-05-07 20:54 | 55.61503 | 12.64363 | 17 ft | 24 kts | 216° |
| 2026-05-07 20:54 | 55.61346 | 12.64186 | 17 ft | 27 kts | 212° |
| 2026-05-07 20:54 | 55.61176 | 12.63995 | 20 ft | 31 kts | 212° |
| 2026-05-07 20:54 | 55.61040 | 12.63840 | 17 ft | 24 kts | 213° |
| 2026-05-07 20:55 | 55.60885 | 12.63660 | 18 ft | 29 kts | 212° |
| 2026-05-07 20:55 | 55.60720 | 12.63471 | 17 ft | 24 kts | 212° |
| 2026-05-07 20:55 | 55.60583 | 12.63286 | 17 ft | 23 kts | 221° |
| 2026-05-07 20:55 | 55.60464 | 12.63111 | 17 ft | 16 kts | 206° |
| 2026-05-07 20:56 | 55.60399 | 12.63151 | 17 ft | 15 kts | 133° |
| 2026-05-07 20:56 | 55.60391 | 12.63171 | 17 ft | 2 kts | 128° |
| 2026-05-07 20:56 | 55.60374 | 12.63207 | 17 ft | 5 kts | 128° |
| 2026-05-07 20:56 | 55.60350 | 12.63263 | 19 ft | 6 kts | 128° |
| 2026-05-07 20:57 | 55.60334 | 12.63328 | 7 ft | 7 kts | 79° |
| 2026-05-07 20:57 | 55.60375 | 12.63405 | 19 ft | 12 kts | 37° |
| 2026-05-07 20:57 | 55.60585 | 12.63731 | 17 ft | 78 kts | 41° |
| 2026-05-07 20:57 | 55.61160 | 12.64618 | 17 ft | 138 kts | 41° |
| 2026-05-07 20:58 | 55.61969 | 12.65911 | 253 ft | 167 kts | 41° |
| 2026-05-07 20:58 | 55.62872 | 12.67378 | 792 ft | 183 kts | 42° |
| 2026-05-07 20:58 | 55.63812 | 12.68922 | 1527 ft | 192 kts | 42° |
| 2026-05-07 20:58 | 55.64863 | 12.70605 | 1919 ft | 216 kts | 36° |
| 2026-05-07 20:59 | 55.66330 | 12.71474 | 2356 ft | 238 kts | 356° |
| 2026-05-07 20:59 | 55.67927 | 12.70499 | 3100 ft | 250 kts | 330° |
| 2026-05-07 20:59 | 55.69540 | 12.69297 | 4090 ft | 255 kts | 346° |
| 2026-05-07 20:59 | 55.71313 | 12.68848 | 5107 ft | 259 kts | 356° |
| 2026-05-07 21:00 | 55.73128 | 12.68743 | 6070 ft | 264 kts | 360° |
| 2026-05-07 21:00 | 55.74986 | 12.68748 | 6982 ft | 270 kts | 1° |
| 2026-05-07 21:00 | 55.76880 | 12.68758 | 7883 ft | 274 kts | 1° |
| 2026-05-07 21:00 | 55.78803 | 12.68729 | 8791 ft | 279 kts | 359° |
| 2026-05-07 21:01 | 55.80722 | 12.68040 | 9673 ft | 286 kts | 339° |
| 2026-05-07 21:01 | 55.82423 | 12.66156 | 10496 ft | 293 kts | 318° |
| 2026-05-07 21:01 | 55.83711 | 12.63222 | 10931 ft | 315 kts | 297° |
| 2026-05-07 21:01 | 55.84579 | 12.59482 | 11159 ft | 338 kts | 291° |
| 2026-05-07 21:02 | 55.85451 | 12.55478 | 11588 ft | 353 kts | 291° |
| 2026-05-07 21:02 | 55.86345 | 12.51378 | 12306 ft | 357 kts | 291° |
| 2026-05-07 21:02 | 55.87253 | 12.47233 | 13078 ft | 361 kts | 291° |
| 2026-05-07 21:02 | 55.88169 | 12.43061 | 13877 ft | 363 kts | 291° |
| 2026-05-07 21:03 | 55.89092 | 12.38865 | 14584 ft | 366 kts | 291° |
| 2026-05-07 21:03 | 55.90060 | 12.34659 | 15245 ft | 369 kts | 296° |
| 2026-05-07 21:03 | 55.91381 | 12.30723 | 15895 ft | 372 kts | 305° |
| 2026-05-07 21:03 | 55.92884 | 12.26949 | 16551 ft | 375 kts | 305° |
| 2026-05-07 21:04 | 55.94375 | 12.23198 | 17216 ft | 378 kts | 305° |
| 2026-05-07 21:04 | 55.95896 | 12.19350 | 17875 ft | 381 kts | 305° |
| 2026-05-07 21:04 | 55.97426 | 12.15470 | 18130 ft | 383 kts | 305° |
| 2026-05-07 21:04 | 55.99003 | 12.11458 | 18187 ft | 399 kts | 305° |
| 2026-05-07 21:05 | 56.00635 | 12.07298 | 18180 ft | 417 kts | 305° |
| 2026-05-07 21:05 | 56.02368 | 12.03168 | 18176 ft | 423 kts | 311° |
| 2026-05-07 21:05 | 56.04470 | 11.99475 | 18180 ft | 425 kts | 320° |
| 2026-05-07 21:05 | 56.06892 | 11.96441 | 18184 ft | 426 kts | 329° |
| 2026-05-07 21:06 | 56.09514 | 11.93804 | 18183 ft | 426 kts | 330° |
| 2026-05-07 21:06 | 56.12062 | 11.91238 | 18177 ft | 426 kts | 330° |
| 2026-05-07 21:06 | 56.14648 | 11.88614 | 18177 ft | 426 kts | 330° |
| 2026-05-07 21:06 | 56.17225 | 11.85980 | 18176 ft | 426 kts | 330° |
| 2026-05-07 21:07 | 56.19801 | 11.83342 | 18175 ft | 426 kts | 330° |
| 2026-05-07 21:07 | 56.22379 | 11.80710 | 18177 ft | 426 kts | 330° |
| 2026-05-07 21:07 | 56.24957 | 11.78079 | 18175 ft | 426 kts | 330° |
| 2026-05-07 21:07 | 56.27534 | 11.75444 | 18174 ft | 426 kts | 330° |
| 2026-05-07 21:08 | 56.30110 | 11.72804 | 18173 ft | 426 kts | 330° |
| 2026-05-07 21:08 | 56.32688 | 11.70161 | 18171 ft | 426 kts | 330° |
| 2026-05-07 21:08 | 56.35238 | 11.67444 | 18170 ft | 426 kts | 328° |
| 2026-05-07 21:08 | 56.37737 | 11.64582 | 18167 ft | 426 kts | 326° |
| 2026-05-07 21:09 | 56.40204 | 11.61625 | 18168 ft | 426 kts | 326° |
| 2026-05-07 21:09 | 56.42656 | 11.58631 | 18173 ft | 426 kts | 325° |
| 2026-05-07 21:09 | 56.45108 | 11.55634 | 18172 ft | 426 kts | 325° |
| 2026-05-07 21:09 | 56.47571 | 11.52647 | 18170 ft | 426 kts | 326° |
| 2026-05-07 21:10 | 56.50039 | 11.49689 | 18170 ft | 426 kts | 326° |
| 2026-05-07 21:10 | 56.52514 | 11.46743 | 18168 ft | 426 kts | 326° |
| 2026-05-07 21:10 | 56.54990 | 11.43802 | 18169 ft | 426 kts | 326° |
| 2026-05-07 21:10 | 56.57466 | 11.40860 | 18169 ft | 426 kts | 326° |
| 2026-05-07 21:11 | 56.59885 | 11.37768 | 18170 ft | 425 kts | 320° |
| 2026-05-07 21:11 | 56.61997 | 11.34030 | 18169 ft | 424 kts | 310° |
| 2026-05-07 21:11 | 56.65060 | 11.24936 | 18167 ft | 423 kts | 294° |
| 2026-05-07 21:12 | 56.66282 | 11.20068 | 18166 ft | 423 kts | 294° |
| 2026-05-07 21:12 | 56.67505 | 11.15188 | 18170 ft | 424 kts | 294° |
| 2026-05-07 21:12 | 56.68725 | 11.10313 | 18168 ft | 424 kts | 294° |
| 2026-05-07 21:12 | 56.69946 | 11.05436 | 18168 ft | 424 kts | 294° |
| 2026-05-07 21:13 | 56.71164 | 11.00556 | 18168 ft | 424 kts | 294° |
| 2026-05-07 21:13 | 56.72377 | 10.95670 | 18166 ft | 424 kts | 294° |
| 2026-05-07 21:13 | 56.73586 | 10.90785 | 18129 ft | 420 kts | 294° |
| 2026-05-07 21:13 | 56.74759 | 10.86026 | 17849 ft | 403 kts | 294° |
| 2026-05-07 21:14 | 56.75892 | 10.81434 | 17583 ft | 394 kts | 294° |
| 2026-05-07 21:14 | 56.77005 | 10.76917 | 17160 ft | 388 kts | 294° |
| 2026-05-07 21:14 | 56.78105 | 10.72451 | 16535 ft | 385 kts | 294° |
| 2026-05-07 21:14 | 56.79180 | 10.68077 | 15934 ft | 381 kts | 294° |
| 2026-05-07 21:15 | 56.80257 | 10.63677 | 15295 ft | 379 kts | 294° |
| 2026-05-07 21:15 | 56.81326 | 10.59308 | 14662 ft | 376 kts | 294° |
| 2026-05-07 21:15 | 56.82388 | 10.54962 | 14014 ft | 374 kts | 294° |
| 2026-05-07 21:15 | 56.83443 | 10.50634 | 13286 ft | 372 kts | 294° |
| 2026-05-07 21:16 | 56.84485 | 10.46347 | 12619 ft | 367 kts | 293° |
| 2026-05-07 21:16 | 56.85514 | 10.42099 | 11950 ft | 364 kts | 293° |
| 2026-05-07 21:16 | 56.86533 | 10.37884 | 11286 ft | 361 kts | 292° |
| 2026-05-07 21:16 | 56.87539 | 10.33719 | 10932 ft | 351 kts | 292° |
| 2026-05-07 21:17 | 56.88500 | 10.29740 | 10803 ft | 334 kts | 293° |
| 2026-05-07 21:17 | 56.89419 | 10.25935 | 10679 ft | 320 kts | 293° |
| 2026-05-07 21:17 | 56.90301 | 10.22273 | 10558 ft | 308 kts | 292° |
| 2026-05-07 21:17 | 56.91146 | 10.18748 | 10430 ft | 297 kts | 292° |
| 2026-05-07 21:18 | 56.91964 | 10.15321 | 10245 ft | 290 kts | 292° |
| 2026-05-07 21:18 | 56.92768 | 10.11948 | 10178 ft | 290 kts | 292° |
| 2026-05-07 21:18 | 56.93575 | 10.08555 | 9840 ft | 294 kts | 292° |
| 2026-05-07 21:18 | 56.94397 | 10.05091 | 9440 ft | 294 kts | 292° |
| 2026-05-07 21:19 | 56.95207 | 10.01689 | 9125 ft | 290 kts | 292° |
| 2026-05-07 21:19 | 56.96010 | 9.98309 | 8755 ft | 288 kts | 292° |
| 2026-05-07 21:19 | 56.96812 | 9.94932 | 8172 ft | 294 kts | 292° |
| 2026-05-07 21:19 | 56.97645 | 9.91418 | 7355 ft | 307 kts | 292° |
| 2026-05-07 21:20 | 56.98510 | 9.87763 | 6532 ft | 318 kts | 292° |
| 2026-05-07 21:20 | 56.99401 | 9.83986 | 5627 ft | 326 kts | 292° |
| 2026-05-07 21:20 | 57.00308 | 9.80127 | 4722 ft | 332 kts | 292° |
| 2026-05-07 21:20 | 57.01212 | 9.76273 | 4276 ft | 318 kts | 292° |
| 2026-05-07 21:21 | 57.02043 | 9.72734 | 4133 ft | 287 kts | 292° |
| 2026-05-07 21:21 | 57.02799 | 9.69513 | 4011 ft | 263 kts | 292° |
| 2026-05-07 21:21 | 57.03493 | 9.66553 | 3894 ft | 242 kts | 292° |
| 2026-05-07 21:21 | 57.04236 | 9.63941 | 3781 ft | 221 kts | 311° |
| 2026-05-07 21:22 | 57.05488 | 9.62503 | 3529 ft | 214 kts | 348° |
| 2026-05-07 21:22 | 57.06948 | 9.62778 | 3181 ft | 217 kts | 27° |
| 2026-05-07 21:22 | 57.08011 | 9.64682 | 2796 ft | 217 kts | 66° |
| 2026-05-07 21:22 | 57.08366 | 9.67389 | 2314 ft | 223 kts | 85° |
| 2026-05-07 21:23 | 57.08547 | 9.70218 | 2011 ft | 215 kts | 85° |
| 2026-05-07 21:23 | 57.08712 | 9.72891 | 1549 ft | 209 kts | 86° |
| 2026-05-07 21:23 | 57.08875 | 9.75548 | 1001 ft | 208 kts | 86° |
| 2026-05-07 21:23 | 57.09036 | 9.78148 | 660 ft | 198 kts | 84° |
| 2026-05-07 21:24 | 57.09190 | 9.80560 | 366 ft | 182 kts | 84° |
| 2026-05-07 21:24 | 57.09332 | 9.82722 | 145 ft | 157 kts | 83° |
| 2026-05-07 21:24 | 57.09441 | 9.84534 | 20 ft | 122 kts | 77° |
| 2026-05-07 21:24 | 57.09531 | 9.85699 | 17 ft | 51 kts | 83° |
| 2026-05-07 21:25 | 57.09570 | 9.86313 | 19 ft | 47 kts | 83° |
| 2026-05-07 21:25 | 57.09587 | 9.86711 | 21 ft | 17 kts | 111° |
| 2026-05-07 21:25 | 57.09526 | 9.86752 | 18 ft | 10 kts | 176° |
| 2026-05-07 21:25 | 57.09447 | 9.86764 | 20 ft | 9 kts | 174° |
| 2026-05-07 21:26 | 57.09396 | 9.86711 | 19 ft | 11 kts | 250° |
| 2026-05-07 21:26 | 57.09384 | 9.86552 | 21 ft | 14 kts | 264° |
| 2026-05-07 21:26 | 57.09373 | 9.86352 | 19 ft | 18 kts | 265° |
| 2026-05-07 21:26 | 57.09360 | 9.86102 | 18 ft | 20 kts | 264° |
| 2026-05-07 21:27 | 57.09307 | 9.85942 | 18 ft | 15 kts | 163° |
| 2026-05-07 21:27 | 57.09210 | 9.86073 | 18 ft | 19 kts | 141° |
| 2026-05-07 21:27 | 57.09096 | 9.86237 | 18 ft | 23 kts | 142° |
| 2026-05-07 21:27 | 57.08961 | 9.86425 | 18 ft | 26 kts | 143° |
| 2026-05-07 21:28 | 57.08812 | 9.86640 | 18 ft | 28 kts | 141° |
| 2026-05-07 21:28 | 57.08692 | 9.86820 | 18 ft | 20 kts | 138° |
| 2026-05-07 21:28 | 57.08611 | 9.86958 | 18 ft | 3 kts | 131° |
| 2026-05-07 21:28 | 57.08620 | 9.86993 | 18 ft | 5 kts | 45° |
| 2026-05-07 21:29 | 57.08643 | 9.87049 | 18 ft | 1 kts | 56° |
| 2026-05-07 21:29 | 57.08644 | 9.87052 | 18 ft | 0 kts | 56° |